createdAt,value
2023-01-26T00:00:56.556Z,101858.31
2023-01-26T00:03:23.262Z,101863.28
2023-01-26T00:05:49.611Z,101867.03
2023-01-26T00:08:15.980Z,101879.66
2023-01-26T00:10:50.040Z,101870.63
2023-01-26T00:13:22.510Z,101849.72
2023-01-26T00:15:49.330Z,101851.38
2023-01-26T00:18:15.719Z,101804.94
2023-01-26T00:20:42.096Z,101809.97
2023-01-26T00:23:08.503Z,101797.34
2023-01-26T00:25:34.883Z,101810.47
2023-01-26T00:28:01.196Z,101850.31
2023-01-26T00:30:27.595Z,101848.72
2023-01-26T00:32:53.999Z,101817.69
2023-01-26T00:35:20.409Z,101810.78
2023-01-26T00:37:46.727Z,101803.66
2023-01-26T00:40:13.418Z,101816.59
2023-01-26T00:42:39.905Z,101807.78
2023-01-26T00:45:06.769Z,101789.63
2023-01-26T00:47:33.111Z,101807.44
2023-01-26T00:49:59.425Z,101826.63
2023-01-26T00:52:25.797Z,101829.50
2023-01-26T00:54:52.098Z,101794.28
2023-01-26T00:57:18.472Z,101821.75
2023-01-26T00:59:44.804Z,101821.75
2023-01-26T01:02:11.251Z,101801.38
2023-01-26T01:04:37.578Z,101796.22
2023-01-26T01:07:03.924Z,101755.97
2023-01-26T01:09:30.291Z,101809.34
2023-01-26T01:11:56.824Z,101801.97
2023-01-26T01:14:23.197Z,101755.88
2023-01-26T01:16:50.047Z,101769.97
2023-01-26T01:19:18.156Z,101763.16
2023-01-26T01:21:45.364Z,101771.47
2023-01-26T01:24:12.521Z,101796.03
2023-01-26T01:26:39.602Z,101789.13
2023-01-26T01:29:07.184Z,101755.47
2023-01-26T01:31:33.658Z,101789.78
2023-01-26T01:34:00.063Z,101776.94
2023-01-26T01:36:26.555Z,101736.63
2023-01-26T01:38:52.960Z,101783.50
2023-01-26T01:41:22.633Z,101778.63
2023-01-26T01:43:50.465Z,101777.84
2023-01-26T01:46:37.066Z,101769.00
2023-01-26T01:49:26.239Z,101796.56
2023-01-26T01:52:00.846Z,101775.13
2023-01-26T01:54:39.593Z,101779.72
2023-01-26T01:57:15.325Z,101756.94
2023-01-26T01:59:46.316Z,101741.97
2023-01-26T02:02:14.015Z,101716.66
2023-01-26T02:04:41.545Z,101739.72
2023-01-26T02:07:09.428Z,101721.34
2023-01-26T02:09:56.725Z,101691.44
2023-01-26T02:12:29.230Z,101739.59
2023-01-26T02:14:57.751Z,101743.38
2023-01-26T02:17:24.836Z,101752.72
2023-01-26T02:20:15.529Z,101772.63
2023-01-26T02:23:15.221Z,101744.97
2023-01-26T02:25:49.543Z,101722.31
2023-01-26T02:28:17.849Z,101753.84
2023-01-26T02:30:44.940Z,101712.47
2023-01-26T02:33:17.815Z,101714.31
2023-01-26T02:35:44.166Z,101731.59
2023-01-26T02:38:10.483Z,101720.19
2023-01-26T02:40:53.506Z,101760.44
2023-01-26T02:43:20.089Z,101740.44
2023-01-26T02:45:46.791Z,101660.72
2023-01-26T02:48:13.108Z,101685.44
2023-01-26T02:50:39.455Z,101700.53
2023-01-26T02:53:05.799Z,101723.53
2023-01-26T02:55:32.115Z,101659.53
2023-01-26T02:58:01.644Z,101716.25
2023-01-26T03:00:36.989Z,101717.59
2023-01-26T03:03:20.415Z,101693.38
2023-01-26T03:05:47.098Z,101709.31
2023-01-26T03:08:13.412Z,101695.00
2023-01-26T03:10:39.799Z,101648.06
2023-01-26T03:13:06.132Z,101656.91
2023-01-26T03:15:42.800Z,101624.50
2023-01-26T03:18:33.384Z,101676.38
2023-01-26T03:21:23.616Z,101660.00
2023-01-26T03:24:08.865Z,101690.78
2023-01-26T03:26:54.171Z,101695.84
2023-01-26T03:29:20.978Z,101705.84
2023-01-26T03:31:48.010Z,101718.06
2023-01-26T03:34:14.463Z,101694.84
2023-01-26T03:36:41.019Z,101673.25
2023-01-26T03:39:07.440Z,101658.97
2023-01-26T03:41:52.295Z,101694.53
2023-01-26T03:44:37.104Z,101679.78
2023-01-26T03:47:21.727Z,101684.19
2023-01-26T03:50:06.558Z,101696.28
2023-01-26T03:52:51.258Z,101706.81
2023-01-26T03:55:36.049Z,101671.72
2023-01-26T03:58:02.423Z,101718.28
2023-01-26T04:00:28.860Z,101684.09
2023-01-26T04:03:13.785Z,101688.34
2023-01-26T04:06:16.385Z,101681.25
2023-01-26T04:08:44.565Z,101702.22
2023-01-26T04:11:10.891Z,101673.56
2023-01-26T04:13:55.554Z,101658.97
2023-01-26T04:16:40.236Z,101700.72
2023-01-26T04:19:25.424Z,101666.16
2023-01-26T04:21:51.787Z,101690.59
2023-01-26T04:24:21.798Z,101662.53
2023-01-26T04:26:48.546Z,101711.78
2023-01-26T04:29:16.032Z,101660.25
2023-01-26T04:31:42.774Z,101700.53
2023-01-26T04:34:14.324Z,101679.88
2023-01-26T04:36:41.345Z,101687.75
2023-01-26T04:39:08.033Z,101659.53
2023-01-26T04:41:34.669Z,101693.94
2023-01-26T04:44:01.320Z,101700.09
2023-01-26T04:46:27.687Z,101678.72
2023-01-26T04:48:54.010Z,101659.75
2023-01-26T04:51:21.845Z,101680.59
2023-01-26T04:53:49.334Z,101656.34
2023-01-26T04:56:29.169Z,101670.44
2023-01-26T04:58:56.183Z,101646.88
2023-01-26T05:01:22.962Z,101634.00
2023-01-26T05:03:49.857Z,101700.28
2023-01-26T05:06:16.689Z,101689.25
2023-01-26T05:08:43.174Z,101690.69
2023-01-26T05:11:10.280Z,101677.34
2023-01-26T05:13:37.181Z,101589.06
2023-01-26T05:16:04.501Z,101677.63
2023-01-26T05:18:30.892Z,101674.22
2023-01-26T05:21:04.792Z,101700.31
2023-01-26T05:23:31.055Z,101701.06
2023-01-26T05:25:57.371Z,101693.00
2023-01-26T05:28:23.697Z,101654.41
2023-01-26T05:30:50.082Z,101679.78
2023-01-26T05:33:16.738Z,101713.72
2023-01-26T05:35:43.079Z,101708.03
2023-01-26T05:38:09.480Z,101637.81
2023-01-26T05:40:35.894Z,101608.94
2023-01-26T05:43:02.297Z,101673.06
2023-01-26T05:45:28.769Z,101694.56
2023-01-26T05:47:55.236Z,101497.34
2023-01-26T05:50:21.614Z,101665.97
2023-01-26T05:52:48.075Z,101700.19
2023-01-26T05:55:14.392Z,101675.78
2023-01-26T05:57:41.025Z,101614.44
2023-01-26T06:00:08.733Z,101676.50
2023-01-26T06:02:35.336Z,101692.38
2023-01-26T06:05:01.694Z,101605.44
2023-01-26T06:07:28.016Z,101665.94
2023-01-26T06:09:54.332Z,101666.78
2023-01-26T06:12:22.217Z,101602.94
2023-01-26T06:14:48.601Z,101688.03
2023-01-26T06:17:17.399Z,101712.75
2023-01-26T06:19:53.420Z,101684.63
2023-01-26T06:22:19.848Z,101671.31
2023-01-26T06:24:46.590Z,101648.00
2023-01-26T06:27:18.730Z,101653.16
2023-01-26T06:29:45.706Z,101681.03
2023-01-26T06:32:13.445Z,101614.44
2023-01-26T06:34:39.852Z,101667.84
2023-01-26T06:37:07.456Z,101575.47
2023-01-26T06:39:33.903Z,101625.88
2023-01-26T06:42:00.279Z,101595.31
2023-01-26T06:44:26.601Z,101640.91
2023-01-26T06:46:53.040Z,101668.97
2023-01-26T06:49:19.461Z,101703.81
2023-01-26T06:51:52.374Z,101725.06
2023-01-26T06:54:18.767Z,101694.41
2023-01-26T06:56:46.720Z,101704.09
2023-01-26T06:59:13.197Z,101726.72
2023-01-26T07:01:43.222Z,101707.50
2023-01-26T07:04:09.740Z,101619.59
2023-01-26T07:06:36.188Z,101629.25
2023-01-26T07:09:02.582Z,101634.59
2023-01-26T07:11:30.684Z,101632.44
2023-01-26T07:13:57.448Z,101635.03
2023-01-26T07:16:23.976Z,101698.09
2023-01-26T07:18:50.555Z,101618.13
2023-01-26T07:21:18.774Z,101722.75
2023-01-26T07:23:46.371Z,101638.63
2023-01-26T07:26:13.452Z,101653.25
2023-01-26T07:28:40.613Z,101649.75
2023-01-26T07:31:08.019Z,101630.41
2023-01-26T07:33:36.106Z,101717.41
2023-01-26T07:36:03.927Z,101586.19
2023-01-26T07:38:35.075Z,101623.47
2023-01-26T07:41:09.153Z,101621.31
2023-01-26T07:43:37.128Z,101590.63
2023-01-26T07:46:04.082Z,101674.50
2023-01-26T07:48:30.841Z,101741.72
2023-01-26T07:51:03.561Z,101658.47
2023-01-26T07:53:33.814Z,101644.72
2023-01-26T07:56:11.691Z,101563.31
2023-01-26T07:58:38.898Z,101641.19
2023-01-26T08:01:13.966Z,101646.50
2023-01-26T08:03:41.631Z,101648.97
2023-01-26T08:06:11.803Z,101679.78
2023-01-26T08:08:42.593Z,101646.41
2023-01-26T08:11:10.649Z,101613.19
2023-01-26T08:13:37.649Z,101636.09
2023-01-26T08:16:06.606Z,101623.78
2023-01-26T08:18:33.000Z,101596.81
2023-01-26T08:20:59.386Z,101638.59
2023-01-26T08:23:25.999Z,101651.84
2023-01-26T08:25:52.417Z,101658.41
2023-01-26T08:28:21.089Z,101679.28
2023-01-26T08:30:47.727Z,101736.78
2023-01-26T08:33:14.155Z,101709.34
2023-01-26T08:35:40.493Z,101651.66
2023-01-26T08:38:06.944Z,101660.16
2023-01-26T08:40:33.294Z,101587.59
2023-01-26T08:43:01.549Z,101646.13
2023-01-26T08:45:32.700Z,101704.91
2023-01-26T08:47:59.103Z,101712.66
2023-01-26T08:50:25.925Z,101674.97
2023-01-26T08:52:56.035Z,101761.09
2023-01-26T08:55:22.605Z,101661.16
2023-01-26T08:57:52.535Z,101675.94
2023-01-26T09:00:19.401Z,101756.00
2023-01-26T09:02:45.991Z,101714.44
2023-01-26T09:05:12.472Z,101677.19
2023-01-26T09:07:38.936Z,101681.69
2023-01-26T09:10:06.094Z,101714.31
2023-01-26T09:12:32.469Z,101742.44
2023-01-26T09:14:58.802Z,101637.50
2023-01-26T09:17:25.243Z,101703.41
2023-01-26T09:19:51.601Z,101680.50
2023-01-26T09:22:18.003Z,101669.25
2023-01-26T09:24:44.346Z,101634.53
2023-01-26T09:27:10.690Z,101681.00
2023-01-26T09:29:37.007Z,101675.16
2023-01-26T09:32:03.552Z,101681.50
2023-01-26T09:34:29.893Z,101648.00
2023-01-26T09:36:56.262Z,101673.56
2023-01-26T09:39:22.631Z,101774.13
2023-01-26T09:42:29.639Z,101726.88
2023-01-26T09:45:22.888Z,101778.91
2023-01-26T09:48:41.852Z,101781.03
2023-01-26T09:51:24.836Z,101692.50
2023-01-26T09:53:57.245Z,101646.09
2023-01-26T09:56:30.678Z,101747.59
2023-01-26T09:59:17.077Z,101643.53
2023-01-26T10:02:06.735Z,101780.31
2023-01-26T10:04:39.158Z,101661.44
2023-01-26T10:07:10.358Z,101674.59
2023-01-26T10:09:38.649Z,101679.22
2023-01-26T10:12:15.092Z,101783.88
2023-01-26T10:14:46.705Z,101648.28
2023-01-26T10:17:18.304Z,101660.84
2023-01-26T10:20:32.734Z,101784.88
2023-01-26T10:23:07.193Z,101771.25
2023-01-26T10:25:39.386Z,101686.03
2023-01-26T10:28:18.141Z,101727.44
2023-01-26T10:30:46.462Z,101675.19
2023-01-26T10:33:18.544Z,101765.38
2023-01-26T10:35:45.586Z,101664.69
2023-01-26T10:38:33.666Z,101760.38
2023-01-26T10:41:01.861Z,101734.75
2023-01-26T10:43:28.264Z,101656.22
2023-01-26T10:45:54.713Z,101691.25
2023-01-26T10:48:27.207Z,101640.72
2023-01-26T10:50:54.328Z,101707.44
2023-01-26T10:53:29.629Z,101604.47
2023-01-26T10:56:01.059Z,101631.44
2023-01-26T10:58:49.232Z,101754.16
2023-01-26T11:01:18.624Z,101738.72
2023-01-26T11:04:05.618Z,101760.66
2023-01-26T11:06:33.025Z,101611.31
2023-01-26T11:09:18.877Z,101684.81
2023-01-26T11:11:58.351Z,101674.00
2023-01-26T11:14:25.167Z,101606.78
2023-01-26T11:17:00.289Z,101753.97
2023-01-26T11:19:35.750Z,101743.22
2023-01-26T11:22:08.415Z,101628.38
2023-01-26T11:25:00.291Z,101651.03
2023-01-26T11:27:53.590Z,101746.47
2023-01-26T11:30:38.783Z,101748.47
2023-01-26T11:33:30.066Z,101731.44
2023-01-26T11:36:15.526Z,101747.66
2023-01-26T11:39:02.705Z,101752.41
2023-01-26T11:42:00.669Z,101628.00
2023-01-26T11:44:48.873Z,101728.97
2023-01-26T11:47:24.314Z,101559.59
2023-01-26T11:50:16.888Z,101726.09
2023-01-26T11:52:57.222Z,101637.88
2023-01-26T11:55:38.661Z,101622.00
2023-01-26T11:58:23.599Z,101724.13
2023-01-26T12:00:52.986Z,101650.97
2023-01-26T12:03:37.777Z,101728.00
2023-01-26T12:06:14.158Z,101568.75
2023-01-26T12:09:04.463Z,101723.34
2023-01-26T12:11:42.305Z,101608.91
2023-01-26T12:14:23.800Z,101713.09
2023-01-26T12:17:17.692Z,101600.50
2023-01-26T12:19:55.075Z,101701.66
2023-01-26T12:22:28.464Z,101576.38
2023-01-26T12:25:18.587Z,101548.25
2023-01-26T12:27:58.501Z,101698.88
2023-01-26T12:30:38.035Z,101694.44
2023-01-26T12:33:04.879Z,101659.66
2023-01-26T12:35:55.653Z,101580.06
2023-01-26T12:38:45.890Z,101680.81
2023-01-26T12:41:47.571Z,101680.75
2023-01-26T12:44:22.528Z,101683.25
2023-01-26T12:46:57.997Z,101680.06
2023-01-26T12:49:32.951Z,101552.69
2023-01-26T12:52:07.934Z,101613.13
2023-01-26T12:54:40.657Z,101669.03
2023-01-26T12:57:15.048Z,101566.88
2023-01-26T12:59:48.265Z,101554.88
2023-01-26T13:02:15.214Z,101646.09
2023-01-26T13:04:44.388Z,101548.09
2023-01-26T13:07:29.458Z,101666.00
2023-01-26T13:10:22.980Z,101641.41
2023-01-26T13:13:07.931Z,101662.13
2023-01-26T13:15:34.447Z,101640.28
2023-01-26T13:18:02.979Z,101666.44
2023-01-26T13:20:43.893Z,101647.47
2023-01-26T13:23:28.744Z,101662.31
2023-01-26T13:26:14.980Z,101657.22
2023-01-26T13:28:42.288Z,101618.91
2023-01-26T13:31:10.665Z,101622.00
2023-01-26T13:33:37.739Z,101559.22
2023-01-26T13:36:12.013Z,101628.06
2023-01-26T13:38:47.628Z,101467.34
2023-01-26T13:41:19.566Z,101543.38
2023-01-26T13:43:48.941Z,101649.22
2023-01-26T13:46:25.697Z,101628.06
2023-01-26T13:48:54.634Z,101629.97
2023-01-26T13:51:25.394Z,101652.84
2023-01-26T13:53:58.073Z,101649.50
2023-01-26T13:56:33.910Z,101654.78
2023-01-26T13:59:26.576Z,101654.84
2023-01-26T14:01:55.012Z,101644.50
2023-01-26T14:04:25.383Z,101628.03
2023-01-26T14:07:00.931Z,101512.22
2023-01-26T14:09:30.356Z,101646.63
2023-01-26T14:12:00.142Z,101601.44
2023-01-26T14:14:33.178Z,101604.28
2023-01-26T14:17:00.435Z,101625.72
2023-01-26T14:19:29.079Z,101647.19
2023-01-26T14:22:00.003Z,101625.56
2023-01-26T14:24:36.063Z,101652.56
2023-01-26T14:27:03.888Z,101654.34
2023-01-26T14:29:38.402Z,101620.41
2023-01-26T14:32:14.038Z,101452.84
2023-01-26T14:34:55.346Z,101627.41
2023-01-26T14:37:22.736Z,101522.06
2023-01-26T14:39:50.323Z,101613.78
2023-01-26T14:42:19.564Z,101621.56
2023-01-26T14:44:46.537Z,101558.59
2023-01-26T14:47:19.103Z,101647.81
2023-01-26T14:49:55.684Z,101665.19
2023-01-26T14:52:35.120Z,101654.88
2023-01-26T14:55:17.108Z,101668.91
2023-01-26T14:57:43.597Z,101667.00
2023-01-26T15:00:42.610Z,101569.03
2023-01-26T15:03:19.283Z,101570.19
2023-01-26T15:05:45.970Z,101665.13
2023-01-26T15:08:18.475Z,101660.06
2023-01-26T15:11:16.141Z,101673.97
2023-01-26T15:13:45.723Z,101666.81
2023-01-26T15:16:21.046Z,101687.97
2023-01-26T15:19:01.678Z,101684.63
2023-01-26T15:21:32.757Z,101669.06
2023-01-26T15:23:59.339Z,101569.66
2023-01-26T15:26:32.276Z,101685.50
2023-01-26T15:29:05.838Z,101586.19
2023-01-26T15:31:38.552Z,101535.59
2023-01-26T15:34:06.372Z,101616.81
2023-01-26T15:36:36.063Z,101672.56
2023-01-26T15:39:14.332Z,101682.25
2023-01-26T15:41:42.030Z,101592.44
2023-01-26T15:44:19.888Z,101677.28
2023-01-26T15:46:46.904Z,101656.25
2023-01-26T15:49:13.992Z,101660.75
2023-01-26T15:51:40.688Z,101543.75
2023-01-26T15:54:10.167Z,101513.31
2023-01-26T15:56:36.936Z,101566.50
2023-01-26T15:59:03.422Z,101622.53
2023-01-26T16:01:29.760Z,101653.84
2023-01-26T16:03:56.270Z,101664.34
2023-01-26T16:06:28.406Z,101668.78
2023-01-26T16:08:56.213Z,101667.00
2023-01-26T16:11:27.756Z,101639.97
2023-01-26T16:14:03.352Z,101539.66
2023-01-26T16:16:30.903Z,101534.31
2023-01-26T16:18:57.367Z,101626.00
2023-01-26T16:21:28.674Z,101556.38
2023-01-26T16:23:55.087Z,101596.47
2023-01-26T16:27:11.537Z,101659.38
2023-01-26T16:29:37.978Z,101623.44
2023-01-26T16:32:30.000Z,101635.75
2023-01-26T16:34:56.523Z,101635.63
2023-01-26T16:37:22.889Z,101643.47
2023-01-26T16:39:49.254Z,101594.69
2023-01-26T16:42:19.181Z,101595.69
2023-01-26T16:44:46.175Z,101619.13
2023-01-26T16:47:12.627Z,101486.59
2023-01-26T16:49:39.045Z,101535.53
2023-01-26T16:52:09.138Z,101640.19
2023-01-26T16:54:43.891Z,101649.56
2023-01-26T16:57:10.386Z,101509.19
2023-01-26T16:59:36.853Z,101651.31
2023-01-26T17:02:03.978Z,101635.53
2023-01-26T17:04:30.333Z,101653.06
2023-01-26T17:06:57.851Z,101521.38
2023-01-26T17:09:24.593Z,101437.69
2023-01-26T17:11:50.980Z,101636.66
2023-01-26T17:14:17.563Z,101569.34
2023-01-26T17:16:44.119Z,101649.00
2023-01-26T17:19:10.483Z,101559.97
2023-01-26T17:21:40.498Z,101536.34
2023-01-26T17:24:07.242Z,101579.97
2023-01-26T17:26:33.690Z,101535.53
2023-01-26T17:29:00.029Z,101505.81
2023-01-26T17:31:26.697Z,101572.09
2023-01-26T17:33:54.415Z,101660.94
2023-01-26T17:36:20.911Z,101543.22
2023-01-26T17:38:48.266Z,101680.97
2023-01-26T17:41:15.492Z,101573.59
2023-01-26T17:43:41.938Z,101540.53
2023-01-26T17:46:11.913Z,101529.25
2023-01-26T17:48:38.790Z,101591.09
2023-01-26T17:51:07.665Z,101632.28
2023-01-26T17:53:37.302Z,101647.66
2023-01-26T17:56:04.312Z,101660.03
2023-01-26T17:58:30.720Z,101660.91
2023-01-26T18:00:57.104Z,101671.44
2023-01-26T18:03:26.854Z,101638.28
2023-01-26T18:05:54.118Z,101695.69
2023-01-26T18:08:20.948Z,101670.34
2023-01-26T18:10:47.424Z,101681.00
2023-01-26T18:13:14.460Z,101674.81
2023-01-26T18:15:41.039Z,101688.13
2023-01-26T18:18:07.483Z,101634.00
2023-01-26T18:20:33.898Z,101501.31
2023-01-26T18:23:00.478Z,101664.59
2023-01-26T18:25:27.167Z,101645.47
2023-01-26T18:27:54.551Z,101676.81
2023-01-26T18:30:21.103Z,101660.09
2023-01-26T18:32:47.595Z,101561.66
2023-01-26T18:35:14.175Z,101688.91
2023-01-26T18:37:40.588Z,101670.63
2023-01-26T18:40:08.232Z,101650.53
2023-01-26T18:42:34.633Z,101654.91
2023-01-26T18:45:01.421Z,101615.50
2023-01-26T18:47:28.640Z,101652.31
2023-01-26T18:49:55.367Z,101657.50
2023-01-26T18:52:22.614Z,101669.91
2023-01-26T18:54:49.070Z,101653.97
2023-01-26T18:57:16.400Z,101463.69
2023-01-26T18:59:42.848Z,101544.94
2023-01-26T19:02:13.409Z,101669.69
2023-01-26T19:04:41.358Z,101661.22
2023-01-26T19:07:10.026Z,101500.69
2023-01-26T19:09:36.780Z,101573.00
2023-01-26T19:12:05.424Z,101588.78
2023-01-26T19:14:32.551Z,101562.63
2023-01-26T19:16:59.908Z,101662.06
2023-01-26T19:19:26.496Z,101553.03
2023-01-26T19:21:53.060Z,101638.53
2023-01-26T19:24:19.621Z,101619.47
2023-01-26T19:26:46.354Z,101436.41
2023-01-26T19:29:12.967Z,101622.94
2023-01-26T19:31:39.513Z,101572.25
2023-01-26T19:34:10.179Z,101531.34
2023-01-26T19:36:36.992Z,101650.84
2023-01-26T19:39:05.025Z,101656.97
2023-01-26T19:41:31.609Z,101493.94
2023-01-26T19:43:58.044Z,101598.56
2023-01-26T19:46:24.498Z,101579.41
2023-01-26T19:48:51.023Z,101529.69
2023-01-26T19:51:20.452Z,101660.44
2023-01-26T19:53:50.203Z,101659.63
2023-01-26T19:56:24.015Z,101653.50
2023-01-26T19:58:55.949Z,101636.97
2023-01-26T20:01:23.935Z,101611.63
2023-01-26T20:03:57.849Z,101622.19
2023-01-26T20:06:27.086Z,101658.84
2023-01-26T20:08:55.298Z,101653.66
2023-01-26T20:11:25.022Z,101556.75
2023-01-26T20:13:56.024Z,101617.94
2023-01-26T20:16:22.844Z,101652.72
2023-01-26T20:18:49.210Z,101546.44
2023-01-26T20:21:15.887Z,101655.53
2023-01-26T20:23:53.576Z,101609.28
2023-01-26T20:26:20.959Z,101655.50
2023-01-26T20:28:47.602Z,101642.50
2023-01-26T20:31:17.429Z,101605.94
2023-01-26T20:33:47.581Z,101622.50
2023-01-26T20:36:19.183Z,101622.47
2023-01-26T20:38:48.244Z,101495.97
2023-01-26T20:41:17.362Z,101600.56
2023-01-26T20:43:58.626Z,101641.69
2023-01-26T20:46:27.713Z,101617.22
2023-01-26T20:48:55.593Z,101550.88
2023-01-26T20:51:25.044Z,101621.56
2023-01-26T20:53:51.443Z,101616.44
2023-01-26T20:56:20.532Z,101600.78
2023-01-26T20:58:47.484Z,101653.03
2023-01-26T21:01:17.875Z,101566.88
2023-01-26T21:03:44.712Z,101601.69
2023-01-26T21:06:14.102Z,101638.38
2023-01-26T21:08:41.047Z,101623.44
2023-01-26T21:11:11.021Z,101640.06
2023-01-26T21:13:37.684Z,101545.00
2023-01-26T21:16:07.472Z,101603.44
2023-01-26T21:18:34.187Z,101643.56
2023-01-26T21:21:04.074Z,101636.63
2023-01-26T21:23:30.944Z,101529.47
2023-01-26T21:26:02.878Z,101627.16
2023-01-26T21:28:29.584Z,101580.88
2023-01-26T21:31:04.274Z,101521.59
2023-01-26T21:33:32.724Z,101638.44
2023-01-26T21:36:01.738Z,101609.66
2023-01-26T21:38:31.803Z,101637.63
2023-01-26T21:41:29.182Z,101588.78
2023-01-26T21:44:00.495Z,101599.19
2023-01-26T21:46:28.027Z,101550.19
2023-01-26T21:48:54.409Z,101636.59
2023-01-26T21:51:59.489Z,101606.13
2023-01-26T21:54:25.975Z,101634.09
2023-01-26T21:56:52.397Z,101584.34
2023-01-26T21:59:19.127Z,101596.69
2023-01-26T22:01:51.033Z,101553.91
2023-01-26T22:04:29.539Z,101635.84
2023-01-26T22:06:56.972Z,101635.84
2023-01-26T22:09:24.233Z,101637.59
2023-01-26T22:11:51.559Z,101614.94
2023-01-26T22:14:20.411Z,101621.91
2023-01-26T22:16:47.284Z,101613.19
2023-01-26T22:19:13.673Z,101630.56
2023-01-26T22:21:40.135Z,101603.69
2023-01-26T22:24:09.383Z,101622.81
2023-01-26T22:26:38.099Z,101506.91
2023-01-26T22:29:05.056Z,101605.41
2023-01-26T22:31:31.890Z,101620.22
2023-01-26T22:34:00.571Z,101584.59
2023-01-26T22:36:28.040Z,101584.50
2023-01-26T22:38:54.511Z,101587.19
2023-01-26T22:41:26.967Z,101641.16
2023-01-26T22:43:55.150Z,101477.22
2023-01-26T22:46:23.766Z,101607.97
2023-01-26T22:48:51.146Z,101630.66
2023-01-26T22:51:20.872Z,101580.13
2023-01-26T22:53:52.505Z,101611.44
2023-01-26T22:56:19.693Z,101609.78
2023-01-26T22:59:04.191Z,101607.94
2023-01-26T23:01:31.600Z,101632.44
2023-01-26T23:03:59.255Z,101632.41
2023-01-26T23:06:26.367Z,101522.53
2023-01-26T23:08:53.474Z,101622.00
2023-01-26T23:11:22.841Z,101613.22
2023-01-26T23:13:51.041Z,101622.75
2023-01-26T23:16:17.948Z,101606.88
2023-01-26T23:18:44.470Z,101614.75
2023-01-26T23:21:11.363Z,101477.94
2023-01-26T23:23:39.237Z,101623.34
2023-01-26T23:26:05.902Z,101595.38
2023-01-26T23:28:35.087Z,101602.41
2023-01-26T23:31:02.111Z,101472.34
2023-01-26T23:33:30.738Z,101576.16
2023-01-26T23:35:57.465Z,101607.56
2023-01-26T23:38:25.655Z,101619.69
2023-01-26T23:40:52.713Z,101566.44
2023-01-26T23:43:19.666Z,101468.69
2023-01-26T23:45:48.015Z,101488.56
2023-01-26T23:48:15.244Z,101593.22
2023-01-26T23:50:41.735Z,101493.75
2023-01-26T23:53:08.247Z,101585.28
2023-01-26T23:55:35.292Z,101617.56
2023-01-26T23:58:01.816Z,101605.06
